createdAt,value
2018-12-07T04:01:04.127Z,11.08
2018-12-07T04:06:03.241Z,11.08
2018-12-07T04:11:03.221Z,11.08
2018-12-07T04:16:03.469Z,11.08
2018-12-07T04:21:04.002Z,11.08
2018-12-07T04:26:03.167Z,11.08
2018-12-07T04:31:03.457Z,11.08
2018-12-07T04:36:08.500Z,11.08
2018-12-07T04:41:03.498Z,11.08
2018-12-07T04:46:03.790Z,11.08
2018-12-07T04:51:03.273Z,11.08
2018-12-07T04:56:03.524Z,11.08
2018-12-07T05:01:03.760Z,11.08
2018-12-07T05:06:03.418Z,11.08
2018-12-07T05:11:03.843Z,11.08
2018-12-07T05:16:03.140Z,11.08
2018-12-07T05:21:03.610Z,11.08
2018-12-07T05:26:03.563Z,11.08
2018-12-07T05:31:03.816Z,11.08
2018-12-07T05:36:03.411Z,11.08
2018-12-07T05:41:03.885Z,11.08
2018-12-07T05:46:03.161Z,11.08
2018-12-07T05:51:03.607Z,11.08
2018-12-07T05:56:03.795Z,11.08
2018-12-07T06:01:03.140Z,10.98
2018-12-07T06:06:03.601Z,11.08
2018-12-07T06:11:03.180Z,10.98
2018-12-07T06:16:03.475Z,10.98
2018-12-07T06:21:03.991Z,10.98
2018-12-07T06:26:03.158Z,10.98
2018-12-07T06:31:03.461Z,10.98
2018-12-07T06:36:03.967Z,10.98
2018-12-07T06:41:03.536Z,10.98
2018-12-07T06:46:03.803Z,10.98
2018-12-07T06:51:03.269Z,10.98
2018-12-07T06:56:03.515Z,10.98
2018-12-07T07:01:03.792Z,10.88
2018-12-07T07:06:03.293Z,10.88
2018-12-07T07:11:03.850Z,10.88
2018-12-07T07:16:03.159Z,10.88
2018-12-07T07:21:03.659Z,10.88
2018-12-07T07:26:03.849Z,10.88
2018-12-07T07:31:03.123Z,10.88
2018-12-07T07:36:03.622Z,10.88
2018-12-07T07:41:03.194Z,10.88
2018-12-07T07:46:03.453Z,10.88
2018-12-07T07:51:03.987Z,10.88
2018-12-07T07:56:03.197Z,10.88
2018-12-07T15:16:03.982Z,11.08
2018-12-07T15:21:03.724Z,11.08
2018-12-07T15:26:03.943Z,11.08
2018-12-07T15:31:03.661Z,10.98
2018-12-07T15:36:03.509Z,10.88
2018-12-07T15:41:03.991Z,10.78
2018-12-07T15:46:04.027Z,10.68
2018-12-07T15:51:03.612Z,10.68
2018-12-07T15:56:03.810Z,10.58
2018-12-07T16:01:04.101Z,10.58
2018-12-07T16:06:03.913Z,10.49
2018-12-07T16:11:03.939Z,10.49
2018-12-07T16:16:04.566Z,10.49
2018-12-07T16:21:04.118Z,10.39
2018-12-07T16:26:04.312Z,10.39
2018-12-07T16:31:04.275Z,10.39
2018-12-07T16:36:03.925Z,10.29
2018-12-07T16:41:03.323Z,10.29
2018-12-07T16:46:03.973Z,10.29
2018-12-07T16:51:04.136Z,10.29
2018-12-07T16:56:04.326Z,10.29
2018-12-07T17:01:03.988Z,10.19
2018-12-07T17:06:04.431Z,10.19
2018-12-07T17:11:04.015Z,10.19
2018-12-07T17:16:03.955Z,10.09
2018-12-07T17:21:03.586Z,10.09
2018-12-07T17:26:03.951Z,10.09
2018-12-07T17:31:04.373Z,10.09
2018-12-07T17:36:04.500Z,10.09
2018-12-07T17:41:04.507Z,10.09
2018-12-07T17:46:04.441Z,10.09
2018-12-07T17:51:03.967Z,9.99
2018-12-07T17:56:04.192Z,10.09
2018-12-07T18:01:03.871Z,10.09
2018-12-07T18:06:04.042Z,10.09
2018-12-07T18:11:04.103Z,10.09
2018-12-07T18:16:03.969Z,10.09
2018-12-07T18:21:04.226Z,9.89
2018-12-07T18:26:03.842Z,9.79
2018-12-07T18:31:03.950Z,9.39
2018-12-07T18:36:04.311Z,9.39
2018-12-07T18:41:03.973Z,9.29
2018-12-07T18:46:04.200Z,8.99
2018-12-07T18:51:04.017Z,8.99
2018-12-07T18:56:04.001Z,8.99
2018-12-07T19:01:04.562Z,8.59
2018-12-07T19:06:03.819Z,8.49
2018-12-07T19:11:04.592Z,8.19
2018-12-07T19:16:08.022Z,7.99
2018-12-07T19:21:04.624Z,8.29
2018-12-07T19:26:04.336Z,8.09
2018-12-07T19:31:03.871Z,8.29
2018-12-07T19:36:04.128Z,8.19
2018-12-07T19:41:03.442Z,8.19
2018-12-07T19:46:04.288Z,8.19
2018-12-07T19:51:04.325Z,8.19
2018-12-07T19:56:03.907Z,8.19
2018-12-07T20:01:04.280Z,8.19
2018-12-07T20:06:04.589Z,8.19
2018-12-07T20:11:04.194Z,8.19
2018-12-07T20:16:04.066Z,7.89
2018-12-07T20:21:03.512Z,7.89
2018-12-07T20:26:04.094Z,7.89
2018-12-07T20:31:04.309Z,7.89
2018-12-07T20:36:04.857Z,7.99
2018-12-07T20:41:04.701Z,7.89
2018-12-07T20:46:04.599Z,7.89
2018-12-07T20:51:04.352Z,7.89
2018-12-07T20:56:03.811Z,7.89
2018-12-07T21:01:04.782Z,7.79
2018-12-07T21:06:04.084Z,7.89
2018-12-07T21:11:03.927Z,7.79
2018-12-07T21:16:03.653Z,7.59
2018-12-07T21:21:04.339Z,7.59
2018-12-07T21:26:03.759Z,7.59
2018-12-07T21:31:04.420Z,7.39
2018-12-07T21:36:04.132Z,7.29
2018-12-07T21:41:04.178Z,7.29
2018-12-07T21:46:04.488Z,7.29
2018-12-07T21:51:03.485Z,7.39
2018-12-07T21:56:04.186Z,7.39
2018-12-07T22:01:03.903Z,7.39
2018-12-07T22:06:04.057Z,7.39
2018-12-07T22:11:04.447Z,7.29
2018-12-07T22:16:03.437Z,7.29
2018-12-07T22:21:04.532Z,7.29
2018-12-07T22:26:04.457Z,7.29
2018-12-07T22:31:03.722Z,7.29
2018-12-07T22:36:04.476Z,7.29
2018-12-07T22:41:04.001Z,7.19
